DLH2020 EDDH-LPFR
Flight info
| Callsign | DLH2020 |
|---|---|
| Flight time | 1h 44m |
| Altitude | 60000 |
| Route | ELSOB3G ELSOB DCT OSTOR DCT CUXIE DCT ABFAD DCT AMCUB DCT HUNQI DCT UTIRA DCT PODOD DCT RODIR DCT LEGBA DCT MOTOX DCT BRILL DCT TEJOP DCT NEXEP DCT DEMOS DCT PT814 DCT MAZUK DCT 37N009W DCT GIMAL |
| Aircraft | CONC/H-SDE2E3FGHIRYW/X |
Departure
| Time | 2026-04-22 19:29 |
|---|---|
| Airport | Hamburg Helmut Schmidt Airport (EDDH) |
Arrival
| Time | 2026-04-22 21:13 |
|---|---|
| Airport | Faro - Gago Coutinho International Airport (LPFR) |
| Time | Latitude | Longitude | Altitude | Speed | Heading |
|---|---|---|---|---|---|
| 2026-04-22 18:42 | 53.62886 | 10.00230 | 55 ft | 0 kts | 124° |
| 2026-04-22 19:15 | 53.62886 | 10.00229 | 55 ft | 0 kts | 124° |
| 2026-04-22 19:18 | 53.62888 | 10.00222 | 55 ft | 4 kts | 123° |
| 2026-04-22 19:18 | 53.62903 | 10.00184 | 51 ft | 4 kts | 121° |
| 2026-04-22 19:19 | 53.62917 | 10.00145 | 51 ft | 3 kts | 122° |
| 2026-04-22 19:19 | 53.62928 | 10.00117 | 51 ft | 4 kts | 140° |
| 2026-04-22 19:19 | 53.62950 | 10.00102 | 53 ft | 4 kts | 192° |
| 2026-04-22 19:19 | 53.62965 | 10.00112 | 52 ft | 1 kts | 213° |
| 2026-04-22 19:23 | 53.62948 | 10.00093 | 53 ft | 2 kts | 211° |
| 2026-04-22 19:23 | 53.62933 | 10.00078 | 55 ft | 3 kts | 210° |
| 2026-04-22 19:23 | 53.62914 | 10.00064 | 53 ft | 3 kts | 205° |
| 2026-04-22 19:23 | 53.62893 | 10.00048 | 55 ft | 3 kts | 204° |
| 2026-04-22 19:24 | 53.62874 | 10.00025 | 53 ft | 3 kts | 219° |
| 2026-04-22 19:24 | 53.62860 | 9.99995 | 55 ft | 3 kts | 232° |
| 2026-04-22 19:24 | 53.62845 | 9.99954 | 54 ft | 6 kts | 238° |
| 2026-04-22 19:24 | 53.62818 | 9.99872 | 50 ft | 10 kts | 242° |
| 2026-04-22 19:25 | 53.62825 | 9.99802 | 49 ft | 5 kts | 295° |
| 2026-04-22 19:25 | 53.62851 | 9.99760 | 52 ft | 5 kts | 321° |
| 2026-04-22 19:25 | 53.62872 | 9.99742 | 52 ft | 0 kts | 332° |
| 2026-04-22 19:28 | 53.62873 | 9.99741 | 52 ft | 4 kts | 332° |
| 2026-04-22 19:28 | 53.63250 | 9.99416 | 53 ft | 126 kts | 333° |
| 2026-04-22 19:28 | 53.64412 | 9.98411 | 289 ft | 238 kts | 333° |
| 2026-04-22 19:29 | 53.65991 | 9.97137 | 1209 ft | 228 kts | 334° |
| 2026-04-22 19:29 | 53.67449 | 9.95987 | 2118 ft | 239 kts | 336° |
| 2026-04-22 19:29 | 53.68940 | 9.94767 | 2845 ft | 239 kts | 331° |
| 2026-04-22 19:29 | 53.70337 | 9.93198 | 3569 ft | 246 kts | 313° |
| 2026-04-22 19:30 | 53.70930 | 9.91568 | 4052 ft | 253 kts | 288° |
| 2026-04-22 19:30 | 53.70959 | 9.87530 | 4727 ft | 267 kts | 262° |
| 2026-04-22 19:30 | 53.70506 | 9.84470 | 4911 ft | 270 kts | 256° |
| 2026-04-22 19:30 | 53.69927 | 9.81436 | 4968 ft | 273 kts | 254° |
| 2026-04-22 19:31 | 53.69308 | 9.78423 | 5015 ft | 270 kts | 254° |
| 2026-04-22 19:31 | 53.68719 | 9.75528 | 5755 ft | 267 kts | 253° |
| 2026-04-22 19:31 | 53.68113 | 9.72508 | 6550 ft | 274 kts | 254° |
| 2026-04-22 19:31 | 53.67517 | 9.69450 | 7302 ft | 276 kts | 255° |
| 2026-04-22 19:32 | 53.66917 | 9.66344 | 8082 ft | 281 kts | 254° |
| 2026-04-22 19:32 | 53.66316 | 9.63190 | 8847 ft | 284 kts | 259° |
| 2026-04-22 19:32 | 53.66249 | 9.59918 | 9651 ft | 281 kts | 283° |
| 2026-04-22 19:32 | 53.66708 | 9.56651 | 10474 ft | 298 kts | 290° |
| 2026-04-22 19:33 | 53.67450 | 9.53173 | 11252 ft | 333 kts | 294° |
| 2026-04-22 19:33 | 53.68380 | 9.49431 | 12026 ft | 368 kts | 296° |
| 2026-04-22 19:33 | 53.69545 | 9.45349 | 12824 ft | 404 kts | 300° |
| 2026-04-22 19:33 | 53.70968 | 9.41009 | 13630 ft | 442 kts | 301° |
| 2026-04-22 19:34 | 53.72551 | 9.36337 | 14420 ft | 463 kts | 301° |
| 2026-04-22 19:34 | 53.74129 | 9.31660 | 15132 ft | 459 kts | 301° |
| 2026-04-22 19:34 | 53.75723 | 9.26920 | 15884 ft | 467 kts | 301° |
| 2026-04-22 19:34 | 53.77329 | 9.22123 | 16661 ft | 471 kts | 301° |
| 2026-04-22 19:35 | 53.78954 | 9.17259 | 17431 ft | 478 kts | 301° |
| 2026-04-22 19:35 | 53.80596 | 9.12334 | 18232 ft | 483 kts | 301° |
| 2026-04-22 19:35 | 53.82258 | 9.07290 | 19007 ft | 501 kts | 302° |
| 2026-04-22 19:35 | 53.84124 | 9.02289 | 19733 ft | 503 kts | 305° |
| 2026-04-22 19:36 | 53.86095 | 8.97336 | 20481 ft | 512 kts | 304° |
| 2026-04-22 19:36 | 53.87655 | 8.91971 | 21258 ft | 522 kts | 287° |
| 2026-04-22 19:36 | 53.88196 | 8.85800 | 22113 ft | 541 kts | 269° |
| 2026-04-22 19:36 | 53.87917 | 8.79407 | 22948 ft | 547 kts | 264° |
| 2026-04-22 19:37 | 53.87562 | 8.72955 | 23782 ft | 553 kts | 265° |
| 2026-04-22 19:37 | 53.87303 | 8.66404 | 24522 ft | 561 kts | 266° |
| 2026-04-22 19:37 | 53.87056 | 8.59753 | 25503 ft | 572 kts | 266° |
| 2026-04-22 19:37 | 53.86789 | 8.52881 | 26978 ft | 597 kts | 265° |
| 2026-04-22 19:38 | 53.86498 | 8.45742 | 28576 ft | 618 kts | 264° |
| 2026-04-22 19:38 | 53.86191 | 8.38393 | 30219 ft | 632 kts | 264° |
| 2026-04-22 19:38 | 53.85870 | 8.30878 | 31388 ft | 648 kts | 263° |
| 2026-04-22 19:38 | 53.85539 | 8.23255 | 32301 ft | 669 kts | 264° |
| 2026-04-22 19:39 | 53.85192 | 8.15309 | 33458 ft | 684 kts | 264° |
| 2026-04-22 19:39 | 53.84828 | 8.07159 | 34344 ft | 707 kts | 264° |
| 2026-04-22 19:39 | 53.84446 | 7.98718 | 35130 ft | 730 kts | 264° |
| 2026-04-22 19:39 | 53.84046 | 7.90027 | 36136 ft | 751 kts | 264° |
| 2026-04-22 19:40 | 53.83629 | 7.81091 | 37101 ft | 773 kts | 265° |
| 2026-04-22 19:40 | 53.83191 | 7.71875 | 38068 ft | 796 kts | 265° |
| 2026-04-22 19:40 | 53.82734 | 7.62414 | 39021 ft | 819 kts | 265° |
| 2026-04-22 19:40 | 53.82256 | 7.52681 | 39807 ft | 841 kts | 265° |
| 2026-04-22 19:41 | 53.81757 | 7.42689 | 40688 ft | 863 kts | 265° |
| 2026-04-22 19:41 | 53.81244 | 7.32587 | 41608 ft | 885 kts | 265° |
| 2026-04-22 19:41 | 53.80700 | 7.22064 | 42575 ft | 910 kts | 265° |
| 2026-04-22 19:41 | 53.80130 | 7.11238 | 43393 ft | 939 kts | 265° |
| 2026-04-22 19:42 | 53.79533 | 7.00079 | 44464 ft | 964 kts | 265° |
| 2026-04-22 19:42 | 53.78911 | 6.88637 | 45687 ft | 988 kts | 265° |
| 2026-04-22 19:42 | 53.78264 | 6.76982 | 46144 ft | 1004 kts | 265° |
| 2026-04-22 19:42 | 53.77595 | 6.65140 | 46491 ft | 1019 kts | 265° |
| 2026-04-22 19:43 | 53.75515 | 6.41182 | 47397 ft | 1045 kts | 254° |
| 2026-04-22 19:43 | 53.73055 | 6.29749 | 47808 ft | 1056 kts | 245° |
| 2026-04-22 19:43 | 53.69570 | 6.18770 | 48126 ft | 1068 kts | 239° |
| 2026-04-22 19:44 | 53.65645 | 6.08046 | 48375 ft | 1079 kts | 238° |
| 2026-04-22 19:44 | 53.61625 | 5.97311 | 48677 ft | 1089 kts | 239° |
| 2026-04-22 19:44 | 53.58084 | 5.86002 | 49056 ft | 1097 kts | 246° |
| 2026-04-22 19:44 | 53.54853 | 5.74326 | 49327 ft | 1106 kts | 243° |
| 2026-04-22 19:45 | 53.51435 | 5.62693 | 49560 ft | 1114 kts | 247° |
| 2026-04-22 19:45 | 53.48830 | 5.50416 | 49909 ft | 1120 kts | 256° |
| 2026-04-22 19:45 | 53.47304 | 5.37576 | 50213 ft | 1126 kts | 263° |
| 2026-04-22 19:45 | 53.46455 | 5.24645 | 50350 ft | 1134 kts | 264° |
| 2026-04-22 19:46 | 53.43303 | 4.98551 | 50475 ft | 1151 kts | 253° |
| 2026-04-22 19:46 | 53.36581 | 4.74138 | 51076 ft | 1162 kts | 236° |
| 2026-04-22 19:47 | 53.31602 | 4.63537 | 52562 ft | 1155 kts | 226° |
| 2026-04-22 19:47 | 53.25867 | 4.54231 | 54196 ft | 1148 kts | 222° |
| 2026-04-22 19:47 | 53.19864 | 4.45426 | 55061 ft | 1148 kts | 221° |
| 2026-04-22 19:47 | 53.13924 | 4.36761 | 55144 ft | 1154 kts | 222° |
| 2026-04-22 19:48 | 53.08222 | 4.27323 | 54880 ft | 1161 kts | 229° |
| 2026-04-22 19:48 | 53.02778 | 4.17346 | 54757 ft | 1167 kts | 225° |
| 2026-04-22 19:48 | 52.96714 | 4.08419 | 55271 ft | 1167 kts | 218° |
| 2026-04-22 19:48 | 52.90329 | 4.00138 | 56266 ft | 1162 kts | 221° |
| 2026-04-22 19:49 | 52.84130 | 3.91576 | 57466 ft | 1156 kts | 219° |
| 2026-04-22 19:49 | 52.77949 | 3.83140 | 58427 ft | 1153 kts | 220° |
| 2026-04-22 19:49 | 52.71773 | 3.74688 | 58883 ft | 1153 kts | 220° |
| 2026-04-22 19:49 | 52.65583 | 3.66248 | 58900 ft | 1158 kts | 220° |
| 2026-04-22 19:50 | 52.53188 | 3.49453 | 58951 ft | 1164 kts | 219° |
| 2026-04-22 19:50 | 52.46932 | 3.41027 | 59513 ft | 1162 kts | 219° |
| 2026-04-22 19:50 | 52.40683 | 3.32642 | 59908 ft | 1162 kts | 219° |
| 2026-04-22 19:51 | 52.34412 | 3.24262 | 60116 ft | 1164 kts | 219° |
| 2026-04-22 19:51 | 52.28138 | 3.15909 | 60244 ft | 1166 kts | 219° |
| 2026-04-22 19:51 | 52.15517 | 2.99202 | 60351 ft | 1171 kts | 219° |
| 2026-04-22 19:52 | 52.02907 | 2.82634 | 60364 ft | 1176 kts | 219° |
| 2026-04-22 19:52 | 51.90129 | 2.65970 | 60363 ft | 1181 kts | 219° |
| 2026-04-22 19:53 | 51.77342 | 2.49422 | 60334 ft | 1163 kts | 219° |
| 2026-04-22 19:53 | 51.71058 | 2.41334 | 60321 ft | 1152 kts | 219° |
| 2026-04-22 19:53 | 51.64794 | 2.33301 | 60308 ft | 1150 kts | 219° |
| 2026-04-22 19:54 | 51.52320 | 2.17391 | 60309 ft | 1153 kts | 218° |
| 2026-04-22 19:54 | 51.39719 | 2.01435 | 60322 ft | 1155 kts | 218° |
| 2026-04-22 19:55 | 51.27078 | 1.85545 | 60304 ft | 1157 kts | 218° |
| 2026-04-22 19:55 | 51.14404 | 1.69726 | 60281 ft | 1158 kts | 218° |
| 2026-04-22 19:56 | 51.01779 | 1.54080 | 60288 ft | 1159 kts | 218° |
| 2026-04-22 19:56 | 50.89722 | 1.37196 | 60443 ft | 1156 kts | 231° |
| 2026-04-22 19:57 | 50.80936 | 1.16012 | 60564 ft | 1152 kts | 247° |
| 2026-04-22 19:57 | 50.75404 | 0.92306 | 60476 ft | 1150 kts | 252° |
| 2026-04-22 19:58 | 50.70064 | 0.68527 | 60347 ft | 1149 kts | 250° |
| 2026-04-22 19:58 | 50.64487 | 0.45110 | 60311 ft | 1149 kts | 249° |
| 2026-04-22 20:00 | 50.39524 | -0.33529 | 60289 ft | 1148 kts | 244° |
| 2026-04-22 20:01 | 50.32282 | -0.55812 | 60282 ft | 1148 kts | 244° |
| 2026-04-22 20:01 | 50.25044 | -0.77882 | 60277 ft | 1148 kts | 243° |
| 2026-04-22 20:02 | 50.17718 | -1.00021 | 60263 ft | 1147 kts | 243° |
| 2026-04-22 20:02 | 50.10353 | -1.22088 | 60253 ft | 1147 kts | 243° |
| 2026-04-22 20:03 | 50.02953 | -1.44066 | 60251 ft | 1146 kts | 243° |
| 2026-04-22 20:03 | 49.95511 | -1.65974 | 60246 ft | 1145 kts | 242° |
| 2026-04-22 20:04 | 49.88086 | -1.87647 | 60243 ft | 1145 kts | 242° |
| 2026-04-22 20:04 | 49.80571 | -2.09400 | 60226 ft | 1145 kts | 242° |
| 2026-04-22 20:05 | 49.73015 | -2.31083 | 60230 ft | 1145 kts | 242° |
| 2026-04-22 20:05 | 49.65815 | -2.53017 | 60243 ft | 1146 kts | 243° |
| 2026-04-22 20:06 | 49.58721 | -2.75015 | 60215 ft | 1145 kts | 244° |
| 2026-04-22 20:06 | 49.51648 | -2.96815 | 60206 ft | 1145 kts | 244° |
| 2026-04-22 20:07 | 49.44500 | -3.18677 | 60200 ft | 1144 kts | 243° |
| 2026-04-22 20:07 | 49.37324 | -3.40445 | 60194 ft | 1142 kts | 243° |
| 2026-04-22 20:08 | 49.30118 | -3.62118 | 60186 ft | 1139 kts | 243° |
| 2026-04-22 20:08 | 49.22899 | -3.83647 | 60172 ft | 1135 kts | 243° |
| 2026-04-22 20:09 | 49.15707 | -4.04915 | 60175 ft | 1133 kts | 243° |
| 2026-04-22 20:09 | 49.08432 | -4.26249 | 60165 ft | 1133 kts | 242° |
| 2026-04-22 20:10 | 49.01124 | -4.47506 | 60160 ft | 1132 kts | 242° |
| 2026-04-22 20:10 | 48.93772 | -4.68710 | 60153 ft | 1132 kts | 242° |
| 2026-04-22 20:11 | 48.86388 | -4.89837 | 60149 ft | 1132 kts | 242° |
| 2026-04-22 20:11 | 48.78133 | -5.09938 | 60246 ft | 1131 kts | 229° |
| 2026-04-22 20:12 | 48.66537 | -5.25928 | 60333 ft | 1133 kts | 213° |
| 2026-04-22 20:12 | 48.54903 | -5.35015 | 60320 ft | 1137 kts | 202° |
| 2026-04-22 20:12 | 48.45085 | -5.40946 | 60214 ft | 1135 kts | 202° |
| 2026-04-22 20:13 | 48.37786 | -5.45500 | 60174 ft | 1136 kts | 204° |
| 2026-04-22 20:13 | 48.23459 | -5.55165 | 60130 ft | 1136 kts | 205° |
| 2026-04-22 20:14 | 48.09119 | -5.65181 | 60122 ft | 1138 kts | 207° |
| 2026-04-22 20:14 | 47.95433 | -5.77051 | 60167 ft | 1139 kts | 210° |
| 2026-04-22 20:15 | 47.81721 | -5.88887 | 60115 ft | 1139 kts | 210° |
| 2026-04-22 20:15 | 47.67979 | -6.00665 | 60121 ft | 1140 kts | 210° |
| 2026-04-22 20:16 | 47.54221 | -6.12392 | 60106 ft | 1141 kts | 210° |
| 2026-04-22 20:16 | 47.40554 | -6.23975 | 60110 ft | 1140 kts | 210° |
| 2026-04-22 20:17 | 47.26788 | -6.35572 | 60113 ft | 1138 kts | 210° |
| 2026-04-22 20:17 | 47.13035 | -6.47088 | 60117 ft | 1137 kts | 210° |
| 2026-04-22 20:18 | 46.99279 | -6.58538 | 60111 ft | 1136 kts | 210° |
| 2026-04-22 20:18 | 46.85624 | -6.69837 | 60112 ft | 1135 kts | 210° |
| 2026-04-22 20:19 | 46.71875 | -6.81146 | 60100 ft | 1133 kts | 210° |
| 2026-04-22 20:19 | 46.58129 | -6.92387 | 60102 ft | 1131 kts | 210° |
| 2026-04-22 20:20 | 46.44409 | -7.03540 | 60104 ft | 1131 kts | 210° |
| 2026-04-22 20:20 | 46.30784 | -7.14553 | 60109 ft | 1128 kts | 210° |
| 2026-04-22 20:21 | 46.17064 | -7.25577 | 60096 ft | 1127 kts | 210° |
| 2026-04-22 20:21 | 46.03346 | -7.36538 | 60098 ft | 1127 kts | 209° |
| 2026-04-22 20:22 | 45.89629 | -7.47435 | 60091 ft | 1126 kts | 209° |
| 2026-04-22 20:22 | 45.75910 | -7.58272 | 60093 ft | 1125 kts | 209° |
| 2026-04-22 20:23 | 45.62283 | -7.68975 | 60084 ft | 1124 kts | 209° |
| 2026-04-22 20:23 | 45.48569 | -7.79687 | 60084 ft | 1124 kts | 209° |
| 2026-04-22 20:24 | 45.34853 | -7.90341 | 60075 ft | 1123 kts | 209° |
| 2026-04-22 20:24 | 45.21134 | -8.00937 | 60077 ft | 1122 kts | 209° |
| 2026-04-22 20:25 | 45.07403 | -8.11484 | 60072 ft | 1122 kts | 208° |
| 2026-04-22 20:25 | 44.93763 | -8.21904 | 60073 ft | 1123 kts | 208° |
| 2026-04-22 20:26 | 44.80012 | -8.32352 | 60069 ft | 1122 kts | 208° |
| 2026-04-22 20:26 | 44.66257 | -8.42746 | 60067 ft | 1122 kts | 208° |
| 2026-04-22 20:27 | 44.52490 | -8.53092 | 60066 ft | 1123 kts | 208° |
| 2026-04-22 20:27 | 44.38809 | -8.63318 | 60070 ft | 1122 kts | 208° |
| 2026-04-22 20:28 | 44.25035 | -8.73560 | 60053 ft | 1122 kts | 208° |
| 2026-04-22 20:28 | 44.11243 | -8.83760 | 60053 ft | 1122 kts | 208° |
| 2026-04-22 20:29 | 43.97446 | -8.93909 | 60045 ft | 1122 kts | 208° |
| 2026-04-22 20:29 | 43.83744 | -9.03936 | 60037 ft | 1122 kts | 208° |
| 2026-04-22 20:30 | 43.69935 | -9.13987 | 60037 ft | 1121 kts | 208° |
| 2026-04-22 20:30 | 43.55517 | -9.22165 | 60153 ft | 1125 kts | 193° |
| 2026-04-22 20:31 | 43.39978 | -9.24410 | 60196 ft | 1129 kts | 179° |
| 2026-04-22 20:31 | 43.24395 | -9.23591 | 60069 ft | 1128 kts | 179° |
| 2026-04-22 20:32 | 43.08685 | -9.23114 | 60029 ft | 1128 kts | 180° |
| 2026-04-22 20:32 | 42.93006 | -9.23779 | 60109 ft | 1129 kts | 188° |
| 2026-04-22 20:33 | 42.77374 | -9.25879 | 60043 ft | 1129 kts | 186° |
| 2026-04-22 20:33 | 42.61831 | -9.27788 | 60015 ft | 1129 kts | 186° |
| 2026-04-22 20:34 | 42.46191 | -9.29700 | 60012 ft | 1128 kts | 186° |
| 2026-04-22 20:34 | 42.30556 | -9.31606 | 60015 ft | 1128 kts | 186° |
| 2026-04-22 20:35 | 42.14933 | -9.33502 | 60023 ft | 1127 kts | 186° |
| 2026-04-22 20:35 | 41.99415 | -9.35376 | 60016 ft | 1127 kts | 186° |
| 2026-04-22 20:36 | 41.83782 | -9.36743 | 60064 ft | 1129 kts | 180° |
| 2026-04-22 20:36 | 41.68072 | -9.36987 | 60036 ft | 1128 kts | 182° |
| 2026-04-22 20:37 | 41.52376 | -9.37493 | 60018 ft | 1128 kts | 182° |
| 2026-04-22 20:37 | 41.36690 | -9.38006 | 60006 ft | 1128 kts | 182° |
| 2026-04-22 20:38 | 41.21106 | -9.38508 | 60008 ft | 1127 kts | 182° |
| 2026-04-22 20:38 | 41.05422 | -9.39008 | 60005 ft | 1127 kts | 182° |
| 2026-04-22 20:39 | 40.89736 | -9.39506 | 60004 ft | 1127 kts | 182° |
| 2026-04-22 20:39 | 40.74070 | -9.40001 | 60004 ft | 1127 kts | 182° |
| 2026-04-22 20:40 | 40.58512 | -9.40489 | 59998 ft | 1126 kts | 183° |
| 2026-04-22 20:40 | 40.42840 | -9.40980 | 60006 ft | 1126 kts | 183° |
| 2026-04-22 20:41 | 40.27176 | -9.41467 | 60013 ft | 1126 kts | 183° |
| 2026-04-22 20:41 | 40.11517 | -9.41952 | 60011 ft | 1126 kts | 183° |
| 2026-04-22 20:42 | 39.95864 | -9.42435 | 60001 ft | 1125 kts | 183° |
| 2026-04-22 20:42 | 39.80311 | -9.42913 | 60004 ft | 1125 kts | 183° |
| 2026-04-22 20:43 | 39.64672 | -9.43391 | 60004 ft | 1125 kts | 183° |
| 2026-04-22 20:43 | 39.49021 | -9.43867 | 59998 ft | 1124 kts | 183° |
| 2026-04-22 20:44 | 39.33422 | -9.44863 | 60050 ft | 1120 kts | 189° |
| 2026-04-22 20:44 | 39.18037 | -9.47236 | 60031 ft | 1120 kts | 188° |
| 2026-04-22 20:45 | 39.02520 | -9.49414 | 59999 ft | 1121 kts | 188° |
| 2026-04-22 20:45 | 38.87010 | -9.51573 | 59980 ft | 1122 kts | 188° |
| 2026-04-22 20:46 | 38.63741 | -9.54801 | 59986 ft | 1121 kts | 188° |
| 2026-04-22 20:46 | 38.48245 | -9.54737 | 60116 ft | 1132 kts | 172° |
| 2026-04-22 20:47 | 38.33046 | -9.49322 | 60118 ft | 1140 kts | 162° |
| 2026-04-22 20:47 | 38.25607 | -9.45783 | 59680 ft | 1133 kts | 161° |
| 2026-04-22 20:47 | 38.18345 | -9.42236 | 59135 ft | 1104 kts | 161° |
| 2026-04-22 20:48 | 38.11274 | -9.38778 | 58591 ft | 1075 kts | 161° |
| 2026-04-22 20:48 | 38.04293 | -9.35832 | 58094 ft | 1041 kts | 168° |
| 2026-04-22 20:48 | 37.97367 | -9.33586 | 57589 ft | 1015 kts | 167° |
| 2026-04-22 20:48 | 37.90742 | -9.31249 | 57055 ft | 989 kts | 167° |
| 2026-04-22 20:49 | 37.84193 | -9.28974 | 56505 ft | 963 kts | 167° |
| 2026-04-22 20:49 | 37.77816 | -9.26749 | 55993 ft | 938 kts | 167° |
| 2026-04-22 20:49 | 37.71611 | -9.24591 | 55448 ft | 912 kts | 167° |
| 2026-04-22 20:49 | 37.65586 | -9.22501 | 54846 ft | 885 kts | 167° |
| 2026-04-22 20:50 | 37.59715 | -9.20470 | 53596 ft | 865 kts | 167° |
| 2026-04-22 20:50 | 37.53978 | -9.18488 | 52266 ft | 846 kts | 167° |
| 2026-04-22 20:50 | 37.48360 | -9.16551 | 50945 ft | 830 kts | 168° |
| 2026-04-22 20:50 | 37.42825 | -9.14646 | 49647 ft | 822 kts | 168° |
| 2026-04-22 20:51 | 37.37394 | -9.12779 | 48363 ft | 815 kts | 168° |
| 2026-04-22 20:51 | 37.32021 | -9.10931 | 47056 ft | 787 kts | 168° |
| 2026-04-22 20:51 | 37.26833 | -9.09153 | 45743 ft | 758 kts | 168° |
| 2026-04-22 20:51 | 37.21843 | -9.07446 | 44390 ft | 729 kts | 168° |
| 2026-04-22 20:52 | 37.17042 | -9.05806 | 42905 ft | 700 kts | 168° |
| 2026-04-22 20:52 | 37.12440 | -9.04235 | 41520 ft | 671 kts | 168° |
| 2026-04-22 20:52 | 37.08056 | -9.02623 | 40222 ft | 645 kts | 162° |
| 2026-04-22 20:52 | 37.04220 | -9.00064 | 39089 ft | 625 kts | 147° |
| 2026-04-22 20:53 | 37.01105 | -8.96416 | 37729 ft | 608 kts | 132° |
| 2026-04-22 20:53 | 36.98930 | -8.91964 | 36219 ft | 594 kts | 116° |
| 2026-04-22 20:53 | 36.97846 | -8.87067 | 34797 ft | 581 kts | 99° |
| 2026-04-22 20:53 | 36.97889 | -8.82058 | 33389 ft | 575 kts | 85° |
| 2026-04-22 20:54 | 36.98484 | -8.77162 | 31862 ft | 563 kts | 87° |
| 2026-04-22 20:54 | 36.98473 | -8.72349 | 30417 ft | 546 kts | 100° |
| 2026-04-22 20:54 | 36.97875 | -8.67721 | 28825 ft | 534 kts | 106° |
| 2026-04-22 20:54 | 36.97001 | -8.63314 | 27267 ft | 524 kts | 109° |
| 2026-04-22 20:55 | 36.96010 | -8.58964 | 25764 ft | 517 kts | 111° |
| 2026-04-22 20:55 | 36.94855 | -8.54755 | 24331 ft | 509 kts | 111° |
| 2026-04-22 20:55 | 36.94195 | -8.50405 | 22866 ft | 510 kts | 98° |
| 2026-04-22 20:55 | 36.93972 | -8.46003 | 21310 ft | 506 kts | 95° |
| 2026-04-22 20:56 | 36.93843 | -8.41638 | 19823 ft | 500 kts | 95° |
| 2026-04-22 20:56 | 36.93629 | -8.37342 | 18617 ft | 488 kts | 99° |
| 2026-04-22 20:56 | 36.93263 | -8.33184 | 17478 ft | 475 kts | 100° |
| 2026-04-22 20:56 | 36.92939 | -8.29125 | 16319 ft | 467 kts | 92° |
| 2026-04-22 20:57 | 36.93465 | -8.25205 | 15245 ft | 465 kts | 72° |
| 2026-04-22 20:57 | 36.95035 | -8.21710 | 14205 ft | 462 kts | 51° |
| 2026-04-22 20:57 | 36.97437 | -8.19105 | 13114 ft | 456 kts | 32° |
| 2026-04-22 20:57 | 37.00146 | -8.17103 | 11977 ft | 449 kts | 30° |
| 2026-04-22 20:58 | 37.02797 | -8.15093 | 10859 ft | 442 kts | 38° |
| 2026-04-22 20:58 | 37.04877 | -8.12343 | 9789 ft | 432 kts | 60° |
| 2026-04-22 20:58 | 37.05986 | -8.08925 | 8647 ft | 419 kts | 83° |
| 2026-04-22 20:58 | 37.05991 | -8.05365 | 7550 ft | 404 kts | 106° |
| 2026-04-22 20:59 | 37.04443 | -8.02873 | 5554 ft | 361 kts | 172° |
| 2026-04-22 20:59 | 37.02215 | -8.04135 | 2709 ft | 382 kts | 236° |
| 2026-04-22 20:59 | 37.01857 | -8.07012 | 2274 ft | 305 kts | 289° |
| 2026-04-22 20:59 | 37.02392 | -8.08978 | 3800 ft | 242 kts | 288° |
| 2026-04-22 21:00 | 37.02957 | -8.11198 | 3398 ft | 269 kts | 287° |
| 2026-04-22 21:00 | 37.03397 | -8.13405 | 3999 ft | 256 kts | 278° |
| 2026-04-22 21:00 | 37.03237 | -8.15573 | 4719 ft | 264 kts | 239° |
| 2026-04-22 21:00 | 37.01980 | -8.17224 | 4398 ft | 265 kts | 201° |
| 2026-04-22 21:01 | 37.00235 | -8.17081 | 3646 ft | 263 kts | 146° |
| 2026-04-22 21:01 | 36.98998 | -8.16211 | 4081 ft | 241 kts | 149° |
| 2026-04-22 21:01 | 36.97645 | -8.14749 | 3711 ft | 268 kts | 123° |
| 2026-04-22 21:01 | 36.97071 | -8.12607 | 2642 ft | 260 kts | 97° |
| 2026-04-22 21:02 | 36.96655 | -8.10405 | 2283 ft | 262 kts | 108° |
| 2026-04-22 21:02 | 36.96063 | -8.08250 | 2125 ft | 262 kts | 109° |
| 2026-04-22 21:02 | 36.95482 | -8.06092 | 2066 ft | 262 kts | 108° |
| 2026-04-22 21:02 | 36.94942 | -8.03914 | 2024 ft | 262 kts | 107° |
| 2026-04-22 21:03 | 36.94456 | -8.01848 | 1977 ft | 232 kts | 106° |
| 2026-04-22 21:03 | 36.94026 | -7.99926 | 1980 ft | 234 kts | 105° |
| 2026-04-22 21:03 | 36.93591 | -7.97963 | 1980 ft | 236 kts | 107° |
| 2026-04-22 21:03 | 36.93126 | -7.95987 | 1986 ft | 236 kts | 106° |
| 2026-04-22 21:04 | 36.92664 | -7.94014 | 2000 ft | 237 kts | 105° |
| 2026-04-22 21:04 | 36.92214 | -7.92031 | 2008 ft | 236 kts | 105° |
| 2026-04-22 21:04 | 36.91779 | -7.90124 | 2002 ft | 228 kts | 106° |
| 2026-04-22 21:04 | 36.91339 | -7.88235 | 1998 ft | 226 kts | 106° |
| 2026-04-22 21:05 | 36.90891 | -7.86348 | 1973 ft | 226 kts | 107° |
| 2026-04-22 21:05 | 36.90449 | -7.84491 | 1986 ft | 226 kts | 107° |
| 2026-04-22 21:05 | 36.90004 | -7.82611 | 1986 ft | 225 kts | 107° |
| 2026-04-22 21:05 | 36.89564 | -7.80734 | 1961 ft | 226 kts | 106° |
| 2026-04-22 21:06 | 36.89126 | -7.78859 | 1985 ft | 225 kts | 106° |
| 2026-04-22 21:06 | 36.88690 | -7.76983 | 1997 ft | 225 kts | 106° |
| 2026-04-22 21:06 | 36.88252 | -7.75112 | 2004 ft | 224 kts | 107° |
| 2026-04-22 21:06 | 36.87810 | -7.73247 | 1997 ft | 224 kts | 107° |
| 2026-04-22 21:07 | 36.87387 | -7.71377 | 1982 ft | 224 kts | 98° |
| 2026-04-22 21:07 | 36.87657 | -7.69496 | 1981 ft | 225 kts | 54° |
| 2026-04-22 21:07 | 36.88848 | -7.68346 | 2026 ft | 223 kts | 11° |
| 2026-04-22 21:07 | 36.90382 | -7.68263 | 2076 ft | 223 kts | 354° |
| 2026-04-22 21:08 | 36.91923 | -7.68424 | 2058 ft | 221 kts | 353° |
| 2026-04-22 21:08 | 36.93451 | -7.68624 | 2034 ft | 221 kts | 345° |
| 2026-04-22 21:08 | 36.94707 | -7.69629 | 2039 ft | 218 kts | 300° |
| 2026-04-22 21:08 | 36.95077 | -7.71421 | 2086 ft | 218 kts | 259° |
| 2026-04-22 21:09 | 36.94506 | -7.73160 | 2102 ft | 219 kts | 247° |
| 2026-04-22 21:09 | 36.94407 | -7.75008 | 2036 ft | 215 kts | 291° |
| 2026-04-22 21:09 | 36.95308 | -7.76333 | 2043 ft | 207 kts | 335° |
| 2026-04-22 21:09 | 36.96601 | -7.77028 | 2059 ft | 198 kts | 326° |
| 2026-04-22 21:10 | 36.97656 | -7.78115 | 2067 ft | 198 kts | 311° |
| 2026-04-22 21:10 | 36.98195 | -7.79646 | 2054 ft | 195 kts | 271° |
| 2026-04-22 21:10 | 36.98418 | -7.81311 | 2004 ft | 199 kts | 302° |
| 2026-04-22 21:10 | 36.99145 | -7.82739 | 2028 ft | 198 kts | 285° |
| 2026-04-22 21:11 | 36.99427 | -7.84405 | 2009 ft | 197 kts | 283° |
| 2026-04-22 21:11 | 36.99774 | -7.86070 | 1662 ft | 196 kts | 285° |
| 2026-04-22 21:11 | 37.00124 | -7.87691 | 1340 ft | 189 kts | 284° |
| 2026-04-22 21:11 | 37.00412 | -7.89246 | 1062 ft | 182 kts | 282° |
| 2026-04-22 21:12 | 37.00578 | -7.90280 | 886 ft | 177 kts | 280° |
| 2026-04-22 21:12 | 37.00858 | -7.92261 | 550 ft | 173 kts | 279° |
| 2026-04-22 21:12 | 37.01053 | -7.93740 | 334 ft | 171 kts | 278° |
| 2026-04-22 21:12 | 37.01254 | -7.95294 | 182 ft | 191 kts | 281° |
| 2026-04-22 21:13 | 37.01488 | -7.96868 | 60 ft | 172 kts | 280° |
| 2026-04-22 21:13 | 37.01654 | -7.98084 | 29 ft | 96 kts | 280° |
| 2026-04-22 21:13 | 37.01715 | -7.98495 | 30 ft | 21 kts | 280° |
| 2026-04-22 21:13 | 37.01799 | -7.98573 | 28 ft | 15 kts | 359° |
| 2026-04-22 21:14 | 37.01875 | -7.98534 | 27 ft | 7 kts | 56° |
| 2026-04-22 21:14 | 37.01889 | -7.98460 | 27 ft | 19 kts | 87° |
| 2026-04-22 21:14 | 37.01868 | -7.98286 | 27 ft | 19 kts | 100° |
| 2026-04-22 21:14 | 37.01847 | -7.98135 | 27 ft | 16 kts | 99° |
| 2026-04-22 21:15 | 37.01809 | -7.97861 | 27 ft | 38 kts | 100° |
| 2026-04-22 21:15 | 37.01765 | -7.97539 | 27 ft | 37 kts | 96° |
| 2026-04-22 21:15 | 37.01719 | -7.97236 | 27 ft | 34 kts | 98° |
| 2026-04-22 21:15 | 37.01680 | -7.96949 | 27 ft | 33 kts | 100° |
| 2026-04-22 21:16 | 37.01640 | -7.96683 | 27 ft | 29 kts | 101° |
| 2026-04-22 21:16 | 37.01659 | -7.96539 | 27 ft | 7 kts | 7° |
| 2026-04-22 21:16 | 37.01710 | -7.96526 | 27 ft | 10 kts | 11° |
| 2026-04-22 21:16 | 37.01762 | -7.96490 | 27 ft | 7 kts | 47° |
| 2026-04-22 21:17 | 37.01771 | -7.96431 | 27 ft | 7 kts | 90° |
| 2026-04-22 21:17 | 37.01778 | -7.96390 | 27 ft | 7 kts | 61° |
| 2026-04-22 21:17 | 37.01829 | -7.96364 | 27 ft | 3 kts | 15° |
| 2026-04-22 21:17 | 37.01841 | -7.96360 | 27 ft | 0 kts | 13° |